메인 페이지
METAR-TAF:

METAR-TAF

공항 :

Ottumwa Industrial Airport

오텀와, 아이오와, 미국

위도: 41-06-24N, 경도: 092-26-53W, 고도: 258m

현재 날씨관측

예보는 27분 전, 13:53시(UTC)에 발표되었습니다.
남서11kt
온도 17°C
습도 88%
기압 1007 hPa
시정: 14.5km
고도 1200ft 상공 구름 조금

METAR: KOTM 071353Z AUTO 23011KT 9SM FEW012 17/15 A2974 RMK AO2 SLP066 T01720150

시각: 09:20 (14:20 UTC)

예보

예보는 2 시간 58분 전, 11:22시(UTC)에 발표되었습니다.
예보 대상 시간: 07일 12시부터 08일 12시까지 (UTC)
남남서5kt
시정: 10km
고도 5000ft 상공 구름 조금
07일 1300시부터 (UTC)
남서6kt
시정: 10km
고도 800ft 상공 구름 보통
07일 1600시부터 (UTC)
남서11kt
시정: 10km
고도 1500ft 상공 구름 보통
07일 1700시부터 (UTC)
12kt
시정: 10km
고도 3000ft 상공 구름 보통
07일 2300시부터 (UTC)
북서10kt
시정: 10km
고도 5000ft 상공 구름 조금
08일 0300시부터 (UTC)
북서8kt
시정: 10km
맑음

TAF: KOTM 071122Z 0712/0812 21005KT P6SM FEW050 FM071300 22006KT P6SM SCT008 FM071600 23011KT P6SM SCT015 FM071700 26012KT P6SM SCT030 FM072300 31010KT P6SM FEW050 FM080300 31008KT P6SM SKC

4,000개 이상의 공항 관측 자료 및 예보 (METAR 및 TAF 보고).

지도상에서 검색 가능한 기상관측소가 노란 점과 빨간 점으로 표시되어 있습니다.

기상관측소 명을 보려면 표시 위로 마우스를 이동하세요.

날씨 관측과 예보를 보려면 클릭하세요.

지도 변경 : 확대하려면 엑스 표시가 있는 녹색 버튼, 축소하려면 빼기 표시가 있는 녹색 버튼, 다음 페이지의 지도를 보려면 녹색 화살표를 클릭하세요.


METAR-TAF: